Time;durP1;ratioP1;P1;durP2;ratioP2;P2;SDS_P1;SDS_P2;PMS_P1;PMS_P2;Temp;Humidity;BMP_temperature;BMP_pressure;BME280_temperature;BME280_humidity;BME280_pressure;Samples;Min_cycle;Max_cycle;Signal;HPM_P1;HPM_P2
2023/06/04 00:01:00;;;;;;;7.28;3.92;;;;;;;;;;5072751;28;20029;-73
2023/06/04 00:03:26;;;;;;;6.50;3.33;;;;;;;;;;5072427;28;20089;-73
2023/06/04 00:05:52;;;;;;;6.40;3.78;;;;;;;;;;5087011;28;20056;-73
2023/06/04 00:08:18;;;;;;;6.53;3.63;;;;;;;;;;5092635;28;20501;-73
2023/06/04 00:10:44;;;;;;;6.45;3.60;;;;;;;;;;5092311;28;20036;-73
2023/06/04 00:13:10;;;;;;;7.10;4.03;;;;;;;;;;5093069;28;20043;-72
2023/06/04 00:15:36;;;;;;;6.00;3.53;;;;;;;;;;5092201;28;20038;-73
2023/06/04 00:18:02;;;;;;;11.07;4.05;;;;;;;;;;5092550;28;20067;-73
2023/06/04 00:20:28;;;;;;;8.77;4.40;;;;;;;;;;5092350;28;20051;-73
2023/06/04 00:22:54;;;;;;;10.50;4.00;;;;;;;;;;5089944;28;20036;-73
2023/06/04 00:25:20;;;;;;;9.07;4.03;;;;;;;;;;5083973;28;20043;-73
2023/06/04 00:27:46;;;;;;;8.63;4.40;;;;;;;;;;5084907;28;20028;-73
2023/06/04 00:30:12;;;;;;;8.70;4.32;;;;;;;;;;5092215;28;20063;-73
2023/06/04 00:32:39;;;;;;;7.63;4.47;;;;;;;;;;5081900;28;20081;-73
2023/06/04 00:35:05;;;;;;;6.60;3.75;;;;;;;;;;5084167;28;20020;-73
2023/06/04 00:37:31;;;;;;;8.10;4.30;;;;;;;;;;5092261;28;20039;-73
2023/06/04 00:39:57;;;;;;;8.10;3.88;;;;;;;;;;5090923;28;20028;-73
2023/06/04 00:42:23;;;;;;;7.10;3.90;;;;;;;;;;5086249;28;20115;-73
2023/06/04 00:44:49;;;;;;;7.38;4.00;;;;;;;;;;5091627;28;20110;-73
2023/06/04 00:47:16;;;;;;;10.00;4.00;;;;;;;;;;5092305;28;20201;-73
2023/06/04 00:49:42;;;;;;;8.45;3.70;;;;;;;;;;5091938;28;20123;-73
2023/06/04 00:52:09;;;;;;;6.75;4.03;;;;;;;;;;5086803;28;20032;-73
2023/06/04 00:54:36;;;;;;;8.45;3.90;;;;;;;;;;5091158;28;20433;-72
2023/06/04 00:57:02;;;;;;;8.65;4.20;;;;;;;;;;5090588;28;20061;-73
2023/06/04 00:59:30;;;;;;;10.10;4.00;;;;;;;;;;5083056;28;20555;-73
2023/06/04 01:02:02;;;;;;;9.43;4.43;;;;;;;;;;5091309;28;20402;-73
2023/06/04 01:04:32;;;;;;;8.57;4.18;;;;;;;;;;5072289;28;20052;-73
2023/06/04 01:07:00;;;;;;;7.88;4.15;;;;;;;;;;5091099;28;20074;-73
2023/06/04 01:09:27;;;;;;;9.02;4.50;;;;;;;;;;5091500;28;20580;-73
2023/06/04 01:11:53;;;;;;;12.90;4.40;;;;;;;;;;5091223;28;20066;-72
2023/06/04 01:14:19;;;;;;;12.48;4.40;;;;;;;;;;5091460;28;20101;-73
2023/06/04 01:17:03;;;;;;;9.82;4.45;;;;;;;;;;5089248;28;20031;-73
2023/06/04 01:19:41;;;;;;;8.32;4.40;;;;;;;;;;5084832;28;20031;-72
2023/06/04 01:22:34;;;;;;;8.10;4.63;;;;;;;;;;5089534;28;20391;-73
2023/06/04 01:25:11;;;;;;;8.90;4.30;;;;;;;;;;5090776;28;20028;-72
2023/06/04 01:27:37;;;;;;;12.82;4.45;;;;;;;;;;5091330;28;20058;-73
2023/06/04 01:30:03;;;;;;;10.70;4.35;;;;;;;;;;5091106;28;20024;-73
2023/06/04 01:32:30;;;;;;;9.73;4.72;;;;;;;;;;5083303;28;20036;-73
2023/06/04 01:34:56;;;;;;;11.43;4.65;;;;;;;;;;5086803;28;20032;-72
2023/06/04 01:37:22;;;;;;;6.35;4.07;;;;;;;;;;5083844;28;20024;-72
2023/06/04 01:39:48;;;;;;;15.30;4.07;;;;;;;;;;5091011;28;20017;-72
2023/06/04 01:42:14;;;;;;;8.77;4.22;;;;;;;;;;5090730;28;20046;-72
2023/06/04 01:44:40;;;;;;;10.45;4.43;;;;;;;;;;5085067;28;20550;-73
2023/06/04 01:47:06;;;;;;;10.52;4.45;;;;;;;;;;5090634;28;20031;-73
2023/06/04 01:49:32;;;;;;;10.18;4.22;;;;;;;;;;5090675;28;20111;-73
2023/06/04 01:51:58;;;;;;;9.25;4.20;;;;;;;;;;5090907;28;20032;-73
2023/06/04 01:54:24;;;;;;;6.72;3.83;;;;;;;;;;5090712;28;20393;-72
2023/06/04 01:56:50;;;;;;;9.63;4.38;;;;;;;;;;5090926;28;20020;-73
2023/06/04 01:59:16;;;;;;;10.43;3.90;;;;;;;;;;5089289;28;20541;-73
2023/06/04 02:01:42;;;;;;;11.85;4.07;;;;;;;;;;5090649;28;20040;-72
2023/06/04 02:04:08;;;;;;;9.38;3.90;;;;;;;;;;5089643;28;20059;-72
2023/06/04 02:06:34;;;;;;;5.85;3.80;;;;;;;;;;5089398;28;20079;-72
2023/06/04 02:09:01;;;;;;;11.07;3.85;;;;;;;;;;5090531;28;20031;-72
2023/06/04 02:11:27;;;;;;;10.50;4.28;;;;;;;;;;5090629;28;20592;-73
2023/06/04 02:13:53;;;;;;;6.65;3.47;;;;;;;;;;5090721;28;20028;-73
2023/06/04 02:16:19;;;;;;;9.80;3.70;;;;;;;;;;5086912;28;20427;-72
2023/06/04 02:18:45;;;;;;;13.38;4.03;;;;;;;;;;5089519;28;20118;-72
2023/06/04 02:21:12;;;;;;;7.93;3.72;;;;;;;;;;5090248;28;20107;-73
2023/06/04 02:23:38;;;;;;;12.38;4.10;;;;;;;;;;5090533;28;20371;-73
2023/06/04 02:26:05;;;;;;;8.57;3.47;;;;;;;;;;5084753;28;20478;-73
2023/06/04 02:28:31;;;;;;;5.03;3.40;;;;;;;;;;5089955;28;20517;-73
2023/06/04 02:30:57;;;;;;;6.28;3.83;;;;;;;;;;5090194;28;20024;-73
2023/06/04 02:33:23;;;;;;;9.50;4.40;;;;;;;;;;5090035;28;20467;-73
2023/06/04 02:35:49;;;;;;;12.50;4.68;;;;;;;;;;5090256;28;20043;-73
2023/06/04 02:38:15;;;;;;;12.05;4.25;;;;;;;;;;5083589;28;20024;-73
2023/06/04 02:40:42;;;;;;;7.15;3.95;;;;;;;;;;5090359;28;20054;-73
2023/06/04 02:43:08;;;;;;;17.17;4.60;;;;;;;;;;5090149;28;20028;-73
2023/06/04 02:45:34;;;;;;;10.00;4.88;;;;;;;;;;5090110;28;20045;-73
2023/06/04 02:48:00;;;;;;;14.48;4.93;;;;;;;;;;5090248;28;20091;-73
2023/06/04 02:50:26;;;;;;;12.23;4.88;;;;;;;;;;5089383;28;20481;-73
2023/06/04 02:52:52;;;;;;;10.60;5.15;;;;;;;;;;5090363;28;20530;-73
2023/06/04 02:55:18;;;;;;;11.90;4.35;;;;;;;;;;5089994;28;20103;-73
2023/06/04 02:57:44;;;;;;;10.52;4.72;;;;;;;;;;5090296;28;20047;-73
2023/06/04 03:00:12;;;;;;;7.88;4.22;;;;;;;;;;5088827;28;20085;-73
2023/06/04 03:02:48;;;;;;;11.13;4.18;;;;;;;;;;5087606;28;20042;-73
2023/06/04 03:05:15;;;;;;;9.88;4.28;;;;;;;;;;5083744;28;20052;-73
2023/06/04 03:07:43;;;;;;;12.35;4.30;;;;;;;;;;5087651;28;20034;-73
2023/06/04 03:10:09;;;;;;;15.00;5.18;;;;;;;;;;5089888;28;20031;-73
2023/06/04 03:12:35;;;;;;;9.93;4.60;;;;;;;;;;5071474;28;20479;-72
2023/06/04 03:15:01;;;;;;;9.63;4.88;;;;;;;;;;5089550;28;20520;-72
2023/06/04 03:17:27;;;;;;;11.35;4.57;;;;;;;;;;5093785;28;20032;-72
2023/06/04 03:19:53;;;;;;;11.30;5.00;;;;;;;;;;5092734;28;20057;-73
2023/06/04 03:22:19;;;;;;;9.73;5.07;;;;;;;;;;5093620;28;20124;-73
2023/06/04 03:24:45;;;;;;;9.65;4.68;;;;;;;;;;5091133;28;20085;-73
2023/06/04 03:27:12;;;;;;;11.65;5.70;;;;;;;;;;5093901;28;20024;-73
2023/06/04 03:29:38;;;;;;;11.80;5.57;;;;;;;;;;5089896;28;20073;-73
2023/06/04 03:32:04;;;;;;;12.52;4.85;;;;;;;;;;5088291;28;20118;-73
2023/06/04 03:34:33;;;;;;;10.38;5.07;;;;;;;;;;5092920;28;20028;-73
2023/06/04 03:36:59;;;;;;;13.40;5.80;;;;;;;;;;5092420;28;20070;-73
2023/06/04 03:39:25;;;;;;;9.05;5.38;;;;;;;;;;5093703;28;20027;-73
2023/06/04 03:41:51;;;;;;;8.88;4.97;;;;;;;;;;5093117;28;20042;-73
2023/06/04 03:44:18;;;;;;;11.35;5.40;;;;;;;;;;5093783;28;20024;-73
2023/06/04 03:46:44;;;;;;;8.00;5.10;;;;;;;;;;5093453;28;20031;-73
2023/06/04 03:49:11;;;;;;;10.85;5.00;;;;;;;;;;5093045;28;20028;-73
2023/06/04 03:51:37;;;;;;;11.35;4.90;;;;;;;;;;5093270;28;20028;-73
2023/06/04 03:54:03;;;;;;;8.57;4.80;;;;;;;;;;5092699;28;20082;-73
2023/06/04 03:56:30;;;;;;;9.02;5.20;;;;;;;;;;5093107;28;20030;-73
2023/06/04 03:58:56;;;;;;;13.23;5.30;;;;;;;;;;5093009;28;20059;-73
2023/06/04 04:01:23;;;;;;;12.68;5.88;;;;;;;;;;5093373;28;20028;-73
2023/06/04 04:03:49;;;;;;;9.93;5.45;;;;;;;;;;5093006;28;20024;-73
2023/06/04 04:06:16;;;;;;;9.30;5.05;;;;;;;;;;5090042;28;20076;-73
2023/06/04 04:08:43;;;;;;;14.48;5.57;;;;;;;;;;5092933;28;20100;-73
2023/06/04 04:11:09;;;;;;;8.52;5.30;;;;;;;;;;5092795;28;20020;-73
2023/06/04 04:13:35;;;;;;;12.77;6.18;;;;;;;;;;5092427;28;20023;-73
2023/06/04 04:16:02;;;;;;;7.90;5.32;;;;;;;;;;5087501;28;20031;-73
2023/06/04 04:18:28;;;;;;;10.65;5.28;;;;;;;;;;5092888;28;20381;-73
2023/06/04 04:20:53;;;;;;;10.73;5.63;;;;;;;;;;5092004;28;20289;-73
2023/06/04 04:23:19;;;;;;;9.02;5.25;;;;;;;;;;5092430;28;20032;-73
2023/06/04 04:25:47;;;;;;;6.97;4.95;;;;;;;;;;5074250;28;20543;-73
2023/06/04 04:28:13;;;;;;;10.63;5.25;;;;;;;;;;5070060;28;20021;-73
2023/06/04 04:30:40;;;;;;;7.78;4.78;;;;;;;;;;5089011;28;20324;-73
2023/06/04 04:33:06;;;;;;;10.18;5.80;;;;;;;;;;5091945;28;20032;-73
2023/06/04 04:35:34;;;;;;;8.30;4.85;;;;;;;;;;5089028;28;20103;-73
2023/06/04 04:38:03;;;;;;;8.13;4.82;;;;;;;;;;5091997;28;20025;-73
2023/06/04 04:40:30;;;;;;;5.88;4.07;;;;;;;;;;5092254;28;20152;-73
2023/06/04 04:42:56;;;;;;;8.20;3.75;;;;;;;;;;5088689;28;20041;-73
2023/06/04 04:45:22;;;;;;;7.07;4.18;;;;;;;;;;5092128;28;20024;-73
2023/06/04 04:47:49;;;;;;;5.93;3.40;;;;;;;;;;5086151;28;20493;-73
2023/06/04 04:50:15;;;;;;;5.82;3.92;;;;;;;;;;5092015;28;20107;-74
2023/06/04 04:52:41;;;;;;;3.97;3.42;;;;;;;;;;5085524;28;20430;-73
2023/06/04 04:55:07;;;;;;;7.13;3.70;;;;;;;;;;5090363;28;20081;-74
2023/06/04 04:57:33;;;;;;;6.68;3.95;;;;;;;;;;5091653;28;20039;-74
2023/06/04 04:59:59;;;;;;;4.50;3.90;;;;;;;;;;5091698;28;20028;-74
2023/06/04 05:02:25;;;;;;;7.45;3.50;;;;;;;;;;5091441;28;20081;-74
2023/06/04 05:04:51;;;;;;;8.82;4.45;;;;;;;;;;5090455;28;20059;-74
2023/06/04 05:07:19;;;;;;;7.18;4.20;;;;;;;;;;5090003;28;20071;-74
2023/06/04 05:09:45;;;;;;;7.03;3.90;;;;;;;;;;5091468;28;20475;-74
2023/06/04 05:12:11;;;;;;;10.30;4.40;;;;;;;;;;5091549;28;20465;-74
2023/06/04 05:14:37;;;;;;;9.05;4.00;;;;;;;;;;5090878;28;20539;-74
2023/06/04 05:17:03;;;;;;;6.75;4.32;;;;;;;;;;5073219;28;20030;-74
2023/06/04 05:19:32;;;;;;;5.53;4.20;;;;;;;;;;5091019;28;20099;-74
2023/06/04 05:21:59;;;;;;;5.60;4.20;;;;;;;;;;5073096;28;20410;-74
2023/06/04 05:24:26;;;;;;;9.05;4.65;;;;;;;;;;5091453;28;20020;-72
2023/06/04 05:26:52;;;;;;;8.13;4.20;;;;;;;;;;5091626;28;20020;-72
2023/06/04 05:29:17;;;;;;;6.95;4.00;;;;;;;;;;5090201;28;20095;-72
2023/06/04 05:31:43;;;;;;;8.00;4.15;;;;;;;;;;5090475;28;20036;-72
2023/06/04 05:34:11;;;;;;;6.80;4.13;;;;;;;;;;5090843;28;20028;-72
2023/06/04 05:36:37;;;;;;;4.90;3.65;;;;;;;;;;5090957;28;20020;-72
2023/06/04 05:39:04;;;;;;;5.07;3.53;;;;;;;;;;5089677;28;20478;-72
2023/06/04 05:41:30;;;;;;;5.72;4.05;;;;;;;;;;5090860;28;20027;-72
2023/06/04 05:43:56;;;;;;;5.80;3.45;;;;;;;;;;5088945;28;20028;-72
2023/06/04 05:46:22;;;;;;;5.97;3.72;;;;;;;;;;5090810;28;20028;-72
2023/06/04 05:48:48;;;;;;;6.13;3.20;;;;;;;;;;5072326;28;20097;-72
2023/06/04 05:51:14;;;;;;;4.90;3.72;;;;;;;;;;5090993;28;20055;-72
2023/06/04 05:53:40;;;;;;;6.22;3.55;;;;;;;;;;5095098;28;20405;-72
2023/06/04 05:56:06;;;;;;;5.38;3.20;;;;;;;;;;5090853;28;20110;-72
2023/06/04 05:58:36;;;;;;;6.22;3.13;;;;;;;;;;5090714;28;20077;-72
2023/06/04 06:01:02;;;;;;;4.30;3.78;;;;;;;;;;5085710;28;20069;-72
2023/06/04 06:03:28;;;;;;;5.60;3.85;;;;;;;;;;5090318;28;20461;-72
2023/06/04 06:05:55;;;;;;;6.93;3.85;;;;;;;;;;5089652;28;20594;-72
2023/06/04 06:08:21;;;;;;;4.10;3.63;;;;;;;;;;5089147;28;20023;-72
2023/06/04 06:10:47;;;;;;;7.45;4.40;;;;;;;;;;5087667;28;20414;-72
2023/06/04 06:13:13;;;;;;;6.25;3.90;;;;;;;;;;5092240;28;20646;-72
2023/06/04 06:15:39;;;;;;;7.13;3.63;;;;;;;;;;5094759;28;20024;-72
2023/06/04 06:18:05;;;;;;;3.38;2.50;;;;;;;;;;5094174;28;20043;-72
2023/06/04 06:20:32;;;;;;;4.90;3.00;;;;;;;;;;5091062;28;20051;-72
2023/06/04 06:22:58;;;;;;;8.00;3.50;;;;;;;;;;5090173;28;20458;-72
2023/06/04 06:25:24;;;;;;;4.72;3.25;;;;;;;;;;5090553;28;20020;-72
2023/06/04 06:27:51;;;;;;;6.00;3.13;;;;;;;;;;5090199;28;20035;-72
2023/06/04 06:30:17;;;;;;;8.68;3.63;;;;;;;;;;5082327;28;20463;-72
2023/06/04 06:32:43;;;;;;;5.45;3.53;;;;;;;;;;5083246;28;20040;-72
2023/06/04 06:35:16;;;;;;;6.72;4.03;;;;;;;;;;5089956;28;20024;-72
2023/06/04 06:37:43;;;;;;;6.53;4.15;;;;;;;;;;5089248;28;20039;-72
2023/06/04 06:40:09;;;;;;;7.18;3.70;;;;;;;;;;5090479;28;20016;-73
2023/06/04 06:42:35;;;;;;;8.85;3.47;;;;;;;;;;5090016;28;20032;-73
2023/06/04 06:45:01;;;;;;;5.63;3.25;;;;;;;;;;5090073;28;20024;-73
2023/06/04 06:47:27;;;;;;;6.13;2.92;;;;;;;;;;5090183;28;20074;-73
2023/06/04 06:49:54;;;;;;;7.60;3.50;;;;;;;;;;5090284;28;20456;-73
2023/06/04 06:52:20;;;;;;;5.32;3.20;;;;;;;;;;5093941;28;20036;-73
2023/06/04 06:54:46;;;;;;;6.40;3.65;;;;;;;;;;5090464;28;20028;-73
2023/06/04 06:57:12;;;;;;;6.45;2.88;;;;;;;;;;5093824;28;20031;-73
2023/06/04 06:59:38;;;;;;;7.22;3.13;;;;;;;;;;5094304;28;20129;-73
2023/06/04 07:02:06;;;;;;;5.65;2.97;;;;;;;;;;5097345;28;20035;-73
2023/06/04 07:04:31;;;;;;;5.00;2.90;;;;;;;;;;5086781;28;20470;-73
2023/06/04 07:06:57;;;;;;;5.80;2.33;;;;;;;;;;5093337;28;20052;-73
2023/06/04 07:09:23;;;;;;;4.50;2.75;;;;;;;;;;5093717;28;20028;-73
2023/06/04 07:11:49;;;;;;;5.05;2.60;;;;;;;;;;5093859;28;20067;-73
2023/06/04 07:14:15;;;;;;;7.47;3.03;;;;;;;;;;5093618;28;20115;-73
2023/06/04 07:16:41;;;;;;;8.18;3.13;;;;;;;;;;5093148;28;20098;-73
2023/06/04 07:19:07;;;;;;;7.30;2.95;;;;;;;;;;5093789;28;20128;-73
2023/06/04 07:21:33;;;;;;;5.05;2.65;;;;;;;;;;5093391;28;20051;-73
2023/06/04 07:23:59;;;;;;;6.30;2.83;;;;;;;;;;5093670;28;20030;-73
2023/06/04 07:26:26;;;;;;;4.57;3.17;;;;;;;;;;5093506;28;20036;-73
2023/06/04 07:28:52;;;;;;;7.07;3.38;;;;;;;;;;5093197;28;20020;-73
2023/06/04 07:31:18;;;;;;;5.28;2.42;;;;;;;;;;5090879;28;20107;-73
2023/06/04 07:33:45;;;;;;;7.30;2.67;;;;;;;;;;5093184;28;20020;-73
2023/06/04 07:36:12;;;;;;;4.53;2.00;;;;;;;;;;5093538;28;20505;-73
2023/06/04 07:38:38;;;;;;;7.70;2.22;;;;;;;;;;5093311;28;20039;-73
2023/06/04 07:41:05;;;;;;;5.35;2.20;;;;;;;;;;5093281;28;20020;-73
2023/06/04 07:43:31;;;;;;;6.97;2.63;;;;;;;;;;5093213;28;20049;-73
2023/06/04 07:45:57;;;;;;;4.70;2.40;;;;;;;;;;5093115;28;20024;-73
2023/06/04 07:48:30;;;;;;;5.22;1.77;;;;;;;;;;5093013;28;20878;-73
2023/06/04 07:50:56;;;;;;;3.28;1.42;;;;;;;;;;5093307;28;20024;-73
2023/06/04 07:53:22;;;;;;;5.28;2.13;;;;;;;;;;5093299;28;20032;-73
2023/06/04 07:55:48;;;;;;;4.00;1.70;;;;;;;;;;5092722;28;20114;-73
2023/06/04 07:58:14;;;;;;;2.55;2.13;;;;;;;;;;5074823;28;20020;-73
2023/06/04 08:00:40;;;;;;;4.13;2.00;;;;;;;;;;5091588;28;20043;-73
2023/06/04 08:03:06;;;;;;;4.78;1.90;;;;;;;;;;5084534;28;20055;-73
2023/06/04 08:05:33;;;;;;;3.03;1.80;;;;;;;;;;5091253;28;20056;-73
2023/06/04 08:08:00;;;;;;;5.78;1.60;;;;;;;;;;5092667;28;20032;-73
2023/06/04 08:10:26;;;;;;;4.10;1.77;;;;;;;;;;5092778;28;20040;-73
2023/06/04 08:12:52;;;;;;;6.38;1.60;;;;;;;;;;5092563;28;20034;-73
2023/06/04 08:15:18;;;;;;;4.63;1.90;;;;;;;;;;5074260;28;20115;-73
2023/06/04 08:17:44;;;;;;;4.43;1.80;;;;;;;;;;5092939;28;20032;-73
2023/06/04 08:20:10;;;;;;;4.63;1.75;;;;;;;;;;5090986;28;20024;-73
2023/06/04 08:22:36;;;;;;;3.60;1.92;;;;;;;;;;5092632;28;20040;-73
2023/06/04 08:25:04;;;;;;;7.40;2.20;;;;;;;;;;5092330;28;20053;-73
2023/06/04 08:27:30;;;;;;;3.28;1.48;;;;;;;;;;5085958;28;20081;-73
2023/06/04 08:29:57;;;;;;;4.53;1.70;;;;;;;;;;5074055;28;20035;-73
2023/06/04 08:32:23;;;;;;;2.97;1.80;;;;;;;;;;5091375;28;20114;-73
2023/06/04 08:34:49;;;;;;;4.93;2.08;;;;;;;;;;5092231;28;20024;-73
2023/06/04 08:37:16;;;;;;;4.57;1.90;;;;;;;;;;5092228;28;20501;-73
2023/06/04 08:39:42;;;;;;;5.47;2.13;;;;;;;;;;5098102;28;20030;-73
2023/06/04 08:42:11;;;;;;;5.45;2.05;;;;;;;;;;5091136;28;20094;-73
2023/06/04 08:44:38;;;;;;;4.10;1.95;;;;;;;;;;5086366;28;20024;-73
2023/06/04 08:47:05;;;;;;;3.42;1.60;;;;;;;;;;5091986;28;20044;-73
2023/06/04 08:49:36;;;;;;;4.60;2.08;;;;;;;;;;5091948;28;20024;-73
2023/06/04 08:52:02;;;;;;;4.68;1.98;;;;;;;;;;5091971;28;20096;-73
2023/06/04 08:54:28;;;;;;;4.47;2.30;;;;;;;;;;5092056;28;20024;-73
2023/06/04 08:56:56;;;;;;;3.53;1.60;;;;;;;;;;5097107;28;20042;-73
2023/06/04 08:59:22;;;;;;;4.82;1.88;;;;;;;;;;5087659;28;20028;-73
2023/06/04 09:01:49;;;;;;;5.25;2.15;;;;;;;;;;5073435;28;20360;-73
2023/06/04 09:04:15;;;;;;;4.60;1.77;;;;;;;;;;5091903;28;20025;-73
2023/06/04 09:06:42;;;;;;;6.85;1.98;;;;;;;;;;5090136;28;20052;-73
2023/06/04 09:09:10;;;;;;;3.70;1.67;;;;;;;;;;5091627;28;20077;-73
2023/06/04 09:11:38;;;;;;;2.72;1.52;;;;;;;;;;5092478;28;20032;-73
2023/06/04 09:14:08;;;;;;;3.47;1.70;;;;;;;;;;5093488;28;20493;-73
2023/06/04 09:16:43;;;;;;;6.30;1.67;;;;;;;;;;5088556;28;20144;-73
2023/06/04 09:19:09;;;;;;;5.55;1.42;;;;;;;;;;5091445;28;20028;-73
2023/06/04 09:21:46;;;;;;;5.35;1.67;;;;;;;;;;5091166;28;20064;-73
2023/06/04 09:24:12;;;;;;;4.85;1.60;;;;;;;;;;5091184;28;20032;-73
2023/06/04 09:26:37;;;;;;;6.85;2.10;;;;;;;;;;5091354;28;20047;-73
2023/06/04 09:29:06;;;;;;;3.05;1.52;;;;;;;;;;5089509;28;20111;-73
2023/06/04 09:31:37;;;;;;;4.80;2.07;;;;;;;;;;5097236;28;20031;-75
2023/06/04 09:34:03;;;;;;;4.18;1.25;;;;;;;;;;5091726;28;20024;-73
2023/06/04 09:36:36;;;;;;;2.22;1.48;;;;;;;;;;5090755;28;20024;-73
2023/06/04 09:39:03;;;;;;;4.75;1.67;;;;;;;;;;5090851;28;20077;-74
2023/06/04 09:41:29;;;;;;;3.22;1.60;;;;;;;;;;5090906;28;20031;-74
2023/06/04 09:44:05;;;;;;;5.28;1.63;;;;;;;;;;5090928;28;20048;-74
2023/06/04 09:46:31;;;;;;;4.85;1.95;;;;;;;;;;5090987;28;20494;-74
2023/06/04 09:49:01;;;;;;;5.45;2.00;;;;;;;;;;5091016;28;20032;-74
2023/06/04 09:51:27;;;;;;;3.83;1.60;;;;;;;;;;5090850;28;20051;-73
2023/06/04 09:54:00;;;;;;;3.00;1.02;;;;;;;;;;5088288;28;20518;-74
2023/06/04 09:56:26;;;;;;;4.88;1.90;;;;;;;;;;5089141;28;20097;-74
2023/06/04 09:58:56;;;;;;;2.72;1.50;;;;;;;;;;5094053;28;20047;-74
2023/06/04 10:01:24;;;;;;;3.05;1.48;;;;;;;;;;5093087;28;20020;-74
2023/06/04 10:03:52;;;;;;;2.42;1.65;;;;;;;;;;5090526;28;20475;-74
2023/06/04 10:06:20;;;;;;;2.35;1.23;;;;;;;;;;5089166;28;20153;-74
2023/06/04 10:08:46;;;;;;;3.83;1.80;;;;;;;;;;5088444;28;20024;-74
2023/06/04 10:11:14;;;;;;;4.57;1.98;;;;;;;;;;5090660;28;20077;-73
2023/06/04 10:13:48;;;;;;;3.25;1.60;;;;;;;;;;5097115;28;20043;-74
2023/06/04 10:16:15;;;;;;;4.85;1.70;;;;;;;;;;5090626;28;20139;-74
2023/06/04 10:18:41;;;;;;;3.67;1.77;;;;;;;;;;5090080;28;20146;-74
2023/06/04 10:21:08;;;;;;;2.45;1.50;;;;;;;;;;5090386;28;20047;-74
2023/06/04 10:23:35;;;;;;;5.03;1.90;;;;;;;;;;5085664;28;20561;-74
2023/06/04 10:26:01;;;;;;;4.78;1.63;;;;;;;;;;5089910;28;20024;-73
2023/06/04 10:28:28;;;;;;;5.95;1.75;;;;;;;;;;5090135;28;20020;-74
2023/06/04 10:30:54;;;;;;;4.50;2.00;;;;;;;;;;5072182;28;20107;-74
2023/06/04 10:33:24;;;;;;;4.25;2.13;;;;;;;;;;5089390;28;20040;-73
2023/06/04 10:35:50;;;;;;;3.50;2.10;;;;;;;;;;5082018;28;20028;-73
2023/06/04 10:38:18;;;;;;;5.03;1.88;;;;;;;;;;5090368;28;20055;-73
2023/06/04 10:40:44;;;;;;;5.03;2.22;;;;;;;;;;5090070;28;20178;-74
2023/06/04 10:43:11;;;;;;;2.67;1.48;;;;;;;;;;5090172;28;20039;-73
2023/06/04 10:45:37;;;;;;;4.43;2.08;;;;;;;;;;5090059;28;20028;-73
2023/06/04 10:48:04;;;;;;;3.75;1.70;;;;;;;;;;5090146;28;20485;-73
2023/06/04 10:50:30;;;;;;;5.63;2.05;;;;;;;;;;5089953;28;20024;-73
2023/06/04 10:53:02;;;;;;;3.58;2.38;;;;;;;;;;5072091;28;20114;-73
2023/06/04 10:55:28;;;;;;;3.45;1.85;;;;;;;;;;5089865;28;20499;-73
2023/06/04 10:57:55;;;;;;;5.15;2.50;;;;;;;;;;5090223;28;20020;-73
2023/06/04 11:00:22;;;;;;;5.30;2.25;;;;;;;;;;5087822;28;20466;-73
2023/06/04 11:02:51;;;;;;;4.38;2.47;;;;;;;;;;5081977;28;20039;-73
2023/06/04 11:05:17;;;;;;;;;;;;;;;;;;5087708;28;20081;-73
2023/06/04 11:07:44;;;;;;;3.45;2.08;;;;;;;;;;5090122;28;20316;-73
2023/06/04 11:10:11;;;;;;;5.25;2.30;;;;;;;;;;5089917;28;20082;-73
2023/06/04 11:12:48;;;;;;;4.20;1.63;;;;;;;;;;5089865;28;20481;-73
2023/06/04 11:15:14;;;;;;;7.70;2.38;;;;;;;;;;5089806;28;20028;-73
2023/06/04 11:17:53;;;;;;;8.80;1.95;;;;;;;;;;5089913;28;20028;-73
2023/06/04 11:20:20;;;;;;;4.63;1.87;;;;;;;;;;5089654;28;20028;-73
2023/06/04 11:22:52;;;;;;;4.72;1.90;;;;;;;;;;5088951;28;20040;-73
2023/06/04 11:25:19;;;;;;;4.53;1.90;;;;;;;;;;5083736;28;20105;-73
2023/06/04 11:27:45;;;;;;;6.30;2.17;;;;;;;;;;5089525;28;20475;-73
2023/06/04 11:30:12;;;;;;;4.28;2.15;;;;;;;;;;5089835;28;20032;-73
2023/06/04 11:32:38;;;;;;;3.22;1.85;;;;;;;;;;5089692;28;20055;-73
2023/06/04 11:35:07;;;;;;;2.72;1.42;;;;;;;;;;5089768;28;20100;-73
2023/06/04 11:37:33;;;;;;;4.75;1.83;;;;;;;;;;5090668;28;20028;-73
2023/06/04 11:40:06;;;;;;;3.25;1.48;;;;;;;;;;5093259;28;20480;-73
2023/06/04 11:42:32;;;;;;;5.60;1.77;;;;;;;;;;5090532;28;20489;-73
2023/06/04 11:44:58;;;;;;;3.30;1.70;;;;;;;;;;5091874;28;20055;-73
2023/06/04 11:47:25;;;;;;;3.08;1.55;;;;;;;;;;5091307;28;20021;-73
2023/06/04 11:49:57;;;;;;;7.43;1.60;;;;;;;;;;5092883;28;20467;-73
2023/06/04 11:52:23;;;;;;;2.60;1.40;;;;;;;;;;5089708;28;20028;-73
2023/06/04 11:54:49;;;;;;;2.60;1.30;;;;;;;;;;5089997;28;20154;-73
2023/06/04 11:57:15;;;;;;;3.28;1.50;;;;;;;;;;5093298;28;20455;-73
2023/06/04 11:59:41;;;;;;;4.63;1.90;;;;;;;;;;5093093;28;20107;-73
2023/06/04 12:02:08;;;;;;;3.35;1.42;;;;;;;;;;5092558;28;20036;-73
2023/06/04 12:04:34;;;;;;;3.03;1.27;;;;;;;;;;5092947;28;20054;-73
2023/06/04 12:07:01;;;;;;;2.22;1.50;;;;;;;;;;5090602;28;20131;-73
2023/06/04 12:09:28;;;;;;;4.55;1.40;;;;;;;;;;5092877;28;20016;-73
2023/06/04 12:12:04;;;;;;;4.75;1.42;;;;;;;;;;5091599;28;20031;-73
2023/06/04 12:14:31;;;;;;;3.95;1.33;;;;;;;;;;5092933;28;20491;-73
2023/06/04 12:16:57;;;;;;;2.38;1.05;;;;;;;;;;5092374;28;20035;-73
2023/06/04 12:19:24;;;;;;;2.88;1.52;;;;;;;;;;5092685;28;20026;-73
2023/06/04 12:22:03;;;;;;;2.05;1.33;;;;;;;;;;5092187;28;20471;-73
2023/06/04 12:24:30;;;;;;;3.83;1.50;;;;;;;;;;5086137;28;20039;-73
2023/06/04 12:27:06;;;;;;;2.78;1.42;;;;;;;;;;5074396;28;20063;-73
2023/06/04 12:29:32;;;;;;;2.22;1.13;;;;;;;;;;5091539;28;20069;-73
2023/06/04 12:32:04;;;;;;;2.33;1.70;;;;;;;;;;5091636;28;20021;-73
2023/06/04 12:34:30;;;;;;;2.67;1.48;;;;;;;;;;5088773;28;20459;-73
2023/06/04 12:36:56;;;;;;;2.78;1.13;;;;;;;;;;5074437;28;20035;-73
2023/06/04 12:39:22;;;;;;;3.25;1.50;;;;;;;;;;5091969;28;20117;-73
2023/06/04 12:41:48;;;;;;;3.15;1.20;;;;;;;;;;5088911;28;20085;-73
2023/06/04 12:44:15;;;;;;;3.33;1.33;;;;;;;;;;5091949;28;20363;-73
2023/06/04 12:46:41;;;;;;;5.05;1.67;;;;;;;;;;5092389;28;20030;-73
2023/06/04 12:49:07;;;;;;;2.53;1.30;;;;;;;;;;5091282;28;20099;-73
2023/06/04 12:51:33;;;;;;;3.45;1.30;;;;;;;;;;5092066;28;20028;-73
2023/06/04 12:53:59;;;;;;;2.22;1.08;;;;;;;;;;5091834;28;20035;-73
2023/06/04 12:56:25;;;;;;;3.92;1.15;;;;;;;;;;5091545;28;20334;-73
2023/06/04 12:58:51;;;;;;;1.35;0.85;;;;;;;;;;5091807;28;20063;-73
2023/06/04 13:01:17;;;;;;;1.27;1.08;;;;;;;;;;5091853;28;20020;-73
2023/06/04 13:03:43;;;;;;;2.10;1.20;;;;;;;;;;5091897;28;20028;-73
2023/06/04 13:06:09;;;;;;;2.70;0.90;;;;;;;;;;5090946;28;20044;-73
2023/06/04 13:08:36;;;;;;;2.28;1.30;;;;;;;;;;5086429;28;20090;-73
2023/06/04 13:11:02;;;;;;;3.92;1.45;;;;;;;;;;5091766;28;20031;-73
2023/06/04 13:13:29;;;;;;;4.13;1.65;;;;;;;;;;5091654;28;20055;-73
2023/06/04 13:15:55;;;;;;;2.17;1.25;;;;;;;;;;5091699;28;20043;-73
2023/06/04 13:18:21;;;;;;;4.25;1.27;;;;;;;;;;5091347;28;20059;-73
2023/06/04 13:20:49;;;;;;;3.03;1.05;;;;;;;;;;5091458;28;20031;-73
2023/06/04 13:23:15;;;;;;;2.55;1.52;;;;;;;;;;5091281;28;20111;-73
2023/06/04 13:25:41;;;;;;;4.38;1.40;;;;;;;;;;5091584;28;20040;-73
2023/06/04 13:28:07;;;;;;;3.10;1.13;;;;;;;;;;5087103;28;20101;-73
2023/06/04 13:30:35;;;;;;;3.35;1.50;;;;;;;;;;5088643;28;20024;-74
2023/06/04 13:33:01;;;;;;;1.73;1.20;;;;;;;;;;5090813;28;20024;-73
2023/06/04 13:35:27;;;;;;;1.80;1.13;;;;;;;;;;5088924;28;20035;-73
2023/06/04 13:37:53;;;;;;;2.72;1.17;;;;;;;;;;5088319;28;20475;-73
2023/06/04 13:40:19;;;;;;;3.78;1.25;;;;;;;;;;5091556;28;20028;-73
2023/06/04 13:42:46;;;;;;;1.42;1.17;;;;;;;;;;5090622;28;20398;-73
2023/06/04 13:45:12;;;;;;;2.85;1.00;;;;;;;;;;5091336;28;20439;-73
2023/06/04 13:47:38;;;;;;;2.55;1.15;;;;;;;;;;5089963;28;20145;-73
2023/06/04 13:50:04;;;;;;;2.80;1.33;;;;;;;;;;5091017;28;20051;-73
2023/06/04 13:52:30;;;;;;;5.03;1.35;;;;;;;;;;5090845;28;20028;-73
2023/06/04 13:54:58;;;;;;;2.78;1.20;;;;;;;;;;5090677;28;20024;-73
2023/06/04 13:57:25;;;;;;;3.22;1.30;;;;;;;;;;5092410;28;20024;-73
2023/06/04 13:59:51;;;;;;;4.38;1.25;;;;;;;;;;5092745;28;20108;-73
2023/06/04 14:02:17;;;;;;;4.30;1.63;;;;;;;;;;5087715;28;20024;-73
2023/06/04 14:04:50;;;;;;;2.80;1.58;;;;;;;;;;5090363;28;20048;-73
2023/06/04 14:07:16;;;;;;;3.88;1.30;;;;;;;;;;5087044;28;20119;-73
2023/06/04 14:09:42;;;;;;;3.75;1.40;;;;;;;;;;5065992;28;20024;-73
2023/06/04 14:12:09;;;;;;;5.53;1.40;;;;;;;;;;5091885;28;20028;-73
2023/06/04 14:14:38;;;;;;;4.20;1.33;;;;;;;;;;5092409;28;20020;-73
2023/06/04 14:17:04;;;;;;;3.33;1.43;;;;;;;;;;5072352;28;20482;-73
2023/06/04 14:19:31;;;;;;;4.38;1.77;;;;;;;;;;5091944;28;20256;-73
2023/06/04 14:21:57;;;;;;;3.58;1.60;;;;;;;;;;5092510;28;20102;-73
2023/06/04 14:24:23;;;;;;;2.53;0.95;;;;;;;;;;5092349;28;20028;-73
2023/06/04 14:26:49;;;;;;;4.55;1.40;;;;;;;;;;5092780;28;20543;-73
2023/06/04 14:29:15;;;;;;;4.80;1.40;;;;;;;;;;5092290;28;20490;-73
2023/06/04 14:31:41;;;;;;;1.00;1.00;;;;;;;;;;5092600;28;20059;-73
2023/06/04 14:34:08;;;;;;;5.55;1.42;;;;;;;;;;5092199;28;20067;-73
2023/06/04 14:36:34;;;;;;;2.58;1.15;;;;;;;;;;5072504;28;20020;-73
2023/06/04 14:39:00;;;;;;;2.85;1.10;;;;;;;;;;5072548;28;20020;-73